Cedar, IA

8:27 AM CST on February 07, 2016 (GMT -0600)
Oskaloosa Municipal | | Change Station
CLOSE
Current Station
Airport
Location: Oskaloosa,
Elevation: 840 ft
Nearby Weather Stations

Elev 840 ft 41.23 °N, 92.49 °W | Updated 12 minutes ago

Clear
Clear
34 °F
Feels Like 26 °F
N
10
Wind Variable Wind from West

Today
High -- | Low -- °F
--% Chance of Precip.
Yesterday
High -- | Low -- °F
Precip. -- in
Pressure 29.87 in
Visibility 10.0 miles
Clouds Clear
Windchill 26 °F
Dew Point 30 °F
Humidity 85%
Rainfall 0.00 in
Snow Depth Not available.
7:15 AM 5:33 PM
Waning Crescent, 1% visible
METAR KOOA 071415Z AUTO 27009KT 10SM CLR 01/M01 A2987 RMK AO2 T00121011
Pressure 29.87 in
Visibility 10.0 miles
Clouds Clear
Windchill 26 °F
Dew Point 30 °F
Humidity 85%
Rainfall 0.00 in
Snow Depth Not available.
7:15 AM 5:33 PM
Waning Crescent, 1% visible
METAR KOOA 071415Z AUTO 27009KT 10SM CLR 01/M01 A2987 RMK AO2 T00121011

10-Day Weather Forecast

Almanac

Astronomy

Feb. 07, 2016 Rise Set
Actual Time
Civil Twilight
Nautical Twilight
Astronomical Twilight
Moon
Length of Visible Light
Length of Day
Tomorrow will be .
, % of the Moon is Illuminated

Today's Extremes

State Highs State Lows

Community

WunderPhotos

Upload Photos

1,891,204 photos uploaded!

WunderBlog® & News

Nearby

Air Quality

  Air Quality AQ Index Pollutant
Not available.

Snow Depth

Station Depth Elevation

Earthquake Activity

City Distance Mag. Time & Date
Minimum magnitude displayed is 2.5.

Coastal Water Temperatures

Place Temperature

Stations

Nearby Weather Stations

Station Location Temp. Windchill Dew Point Humidity Wind Precip. Elev Updated Type
                   

Watches & Warnings

There are currently no watches in effect.